Terminal Aerodrome Forecast
Issued by NWS Louisville, KY

Home | Current Version | Previous Version | Text Only | Print | Product List | Glossary On
Versions: 1 2 3 4 5 6 7 8 9 10 11
FTUS43 KLMK 170540
KLEX 170540Z 1706/1806 09006KT P6SM BKN110 WS020/22035KT
     FM170800 11008KT P6SM -SHRA BKN045 WS020/22035KT
     FM171100 12006KT P6SM -SHRA BKN015
     FM171300 14005KT P6SM VCSH BKN008 OVC070
     FM171600 21010KT P6SM BKN015
     FM171800 08006KT P6SM -SHRA VCTS BKN015CB
     FM180200 36007KT P6SM SCT003 BKN080=

USA.gov is the U.S. government's official web portal to all federal, state and local government web resources and services.